createdAt,value
2022-11-22T00:00:45.056Z,96847.66
2022-11-22T00:03:12.303Z,96849.84
2022-11-22T00:05:39.371Z,96845.69
2022-11-22T00:08:06.480Z,96837.38
2022-11-22T00:10:33.522Z,96837.03
2022-11-22T00:13:00.362Z,96824.75
2022-11-22T00:15:27.222Z,96827.50
2022-11-22T00:17:54.218Z,96826.88
2022-11-22T00:20:21.256Z,96817.38
2022-11-22T00:22:48.582Z,96814.97
2022-11-22T00:25:15.594Z,96807.06
2022-11-22T00:27:42.697Z,96816.38
2022-11-22T00:30:09.845Z,96816.16
2022-11-22T00:32:36.753Z,96803.31
2022-11-22T00:35:03.772Z,96794.03
2022-11-22T00:37:30.500Z,96804.91
2022-11-22T00:39:57.329Z,96812.03
2022-11-22T00:42:24.150Z,96804.69
2022-11-22T00:44:50.921Z,96795.81
2022-11-22T00:47:17.614Z,96791.81
2022-11-22T00:49:44.300Z,96796.34
2022-11-22T00:52:11.027Z,96791.22
2022-11-22T00:54:37.811Z,96783.06
2022-11-22T00:57:04.613Z,96781.50
2022-11-22T00:59:31.549Z,96789.59
2022-11-22T01:01:58.421Z,96787.06
2022-11-22T01:04:25.263Z,96787.06
2022-11-22T01:06:52.054Z,96780.50
2022-11-22T01:09:22.187Z,96779.31
2022-11-22T01:11:49.616Z,96781.09
2022-11-22T01:14:17.659Z,96779.47
2022-11-22T01:16:44.808Z,96782.47
2022-11-22T01:19:11.639Z,96773.72
2022-11-22T01:21:38.877Z,96777.09
2022-11-22T01:24:06.220Z,96771.81
2022-11-22T01:26:34.078Z,96771.81
2022-11-22T01:29:00.836Z,96777.09
2022-11-22T01:31:27.645Z,96770.97
2022-11-22T01:33:54.410Z,96762.25
2022-11-22T01:36:21.161Z,96770.91
2022-11-22T01:38:47.817Z,96776.06
2022-11-22T01:41:14.637Z,96766.53
2022-11-22T01:43:41.447Z,96768.13
2022-11-22T01:46:17.926Z,96764.19
2022-11-22T01:49:05.141Z,96757.25
2022-11-22T01:51:43.799Z,96760.84
2022-11-22T01:54:16.150Z,96753.91
2022-11-22T01:56:50.495Z,96757.09
2022-11-22T01:59:20.319Z,96758.88
2022-11-22T02:01:47.057Z,96754.53
2022-11-22T02:04:17.271Z,96750.75
2022-11-22T02:06:51.534Z,96751.69
2022-11-22T02:09:18.681Z,96754.09
2022-11-22T02:11:54.137Z,96749.19
2022-11-22T02:14:25.277Z,96750.59
2022-11-22T02:16:51.971Z,96749.97
2022-11-22T02:19:43.263Z,96740.03
2022-11-22T02:22:22.289Z,96732.91
2022-11-22T02:24:59.683Z,96740.19
2022-11-22T02:27:28.988Z,96744.13
2022-11-22T02:29:55.793Z,96733.84
2022-11-22T02:32:25.345Z,96736.25
2022-11-22T02:34:52.259Z,96740.47
2022-11-22T02:37:29.891Z,96744.66
2022-11-22T02:40:01.010Z,96757.69
2022-11-22T02:42:30.667Z,96758.44
2022-11-22T02:44:57.449Z,96771.16
2022-11-22T02:47:24.251Z,96775.34
2022-11-22T02:49:53.279Z,96781.84
2022-11-22T02:52:24.454Z,96780.16
2022-11-22T02:54:51.170Z,96774.97
2022-11-22T02:57:17.855Z,96777.16
2022-11-22T02:59:44.441Z,96779.88
2022-11-22T03:02:11.166Z,96775.13
2022-11-22T03:04:37.860Z,96764.81
2022-11-22T03:07:04.667Z,96753.88
2022-11-22T03:09:32.316Z,96757.03
2022-11-22T03:11:59.468Z,96758.03
2022-11-22T03:14:26.238Z,96757.38
2022-11-22T03:16:52.990Z,96762.75
2022-11-22T03:19:20.063Z,96762.34
2022-11-22T03:21:46.877Z,96774.44
2022-11-22T03:24:14.090Z,96777.19
2022-11-22T03:26:40.739Z,96772.97
2022-11-22T03:29:07.295Z,96772.94
2022-11-22T03:31:33.981Z,96779.44
2022-11-22T03:34:00.769Z,96782.44
2022-11-22T03:36:27.526Z,96783.78
2022-11-22T03:38:54.162Z,96791.53
2022-11-22T03:41:20.907Z,96792.34
2022-11-22T03:43:47.605Z,96783.94
2022-11-22T03:46:20.381Z,96792.06
2022-11-22T03:48:47.337Z,96786.66
2022-11-22T03:51:14.118Z,96785.66
2022-11-22T03:53:41.115Z,96782.31
2022-11-22T03:56:07.758Z,96779.38
2022-11-22T03:58:35.110Z,96782.16
2022-11-22T04:01:02.238Z,96779.38
2022-11-22T04:03:29.021Z,96787.44
2022-11-22T04:05:58.335Z,96781.66
2022-11-22T04:08:25.080Z,96790.41
2022-11-22T04:10:52.424Z,96792.97
2022-11-22T04:13:19.277Z,96791.63
2022-11-22T04:15:46.139Z,96792.41
2022-11-22T04:18:14.548Z,96794.97
2022-11-22T04:20:59.920Z,96799.84
2022-11-22T04:23:33.566Z,96806.66
2022-11-22T04:26:01.257Z,96810.78
2022-11-22T04:28:54.013Z,96813.50
2022-11-22T04:31:34.805Z,96815.88
2022-11-22T04:34:01.780Z,96813.09
2022-11-22T04:36:28.617Z,96813.88
2022-11-22T04:38:55.574Z,96819.03
2022-11-22T04:41:22.408Z,96819.59
2022-11-22T04:44:10.115Z,96818.59
2022-11-22T04:46:36.997Z,96821.41
2022-11-22T04:49:04.136Z,96821.97
2022-11-22T04:51:51.971Z,96818.03
2022-11-22T04:54:19.032Z,96824.75
2022-11-22T04:56:45.860Z,96816.16
2022-11-22T04:59:12.544Z,96811.16
2022-11-22T05:01:39.630Z,96813.53
2022-11-22T05:04:06.483Z,96814.94
2022-11-22T05:06:33.298Z,96813.53
2022-11-22T05:09:01.258Z,96814.94
2022-11-22T05:11:28.121Z,96797.41
2022-11-22T05:13:57.669Z,96816.03
2022-11-22T05:16:24.488Z,96817.63
2022-11-22T05:18:59.379Z,96817.47
2022-11-22T05:21:28.005Z,96824.00
2022-11-22T05:23:58.997Z,96826.56
2022-11-22T05:26:31.320Z,96826.72
2022-11-22T05:28:59.165Z,96810.22
2022-11-22T05:31:27.643Z,96825.84
2022-11-22T05:33:57.156Z,96818.25
2022-11-22T05:36:24.913Z,96813.00
2022-11-22T05:38:55.277Z,96819.19
2022-11-22T05:41:24.272Z,96809.44
2022-11-22T05:43:51.318Z,96822.09
2022-11-22T05:46:24.438Z,96831.56
2022-11-22T05:48:53.161Z,96833.56
2022-11-22T05:51:24.228Z,96821.66
2022-11-22T05:53:52.107Z,96832.78
2022-11-22T05:56:24.705Z,96833.00
2022-11-22T05:58:51.903Z,96825.19
2022-11-22T06:01:24.245Z,96827.56
2022-11-22T06:03:51.343Z,96840.28
2022-11-22T06:06:18.174Z,96839.31
2022-11-22T06:08:47.776Z,96843.22
2022-11-22T06:11:18.691Z,96837.56
2022-11-22T06:13:49.675Z,96844.28
2022-11-22T06:16:19.606Z,96848.22
2022-11-22T06:18:46.335Z,96866.81
2022-11-22T06:21:15.321Z,96870.50
2022-11-22T06:23:42.572Z,96866.28
2022-11-22T06:26:12.599Z,96863.69
2022-11-22T06:28:43.020Z,96861.69
2022-11-22T06:31:15.095Z,96861.50
2022-11-22T06:33:42.843Z,96867.78
2022-11-22T06:36:12.815Z,96868.56
2022-11-22T06:38:41.320Z,96870.94
2022-11-22T06:41:12.569Z,96865.22
2022-11-22T06:43:46.814Z,96879.47
2022-11-22T06:46:16.323Z,96888.56
2022-11-22T06:48:43.574Z,96889.34
2022-11-22T06:51:26.097Z,96890.28
2022-11-22T06:54:23.044Z,96886.91
2022-11-22T06:56:50.123Z,96872.78
2022-11-22T06:59:17.583Z,96871.56
2022-11-22T07:01:44.407Z,96879.88
2022-11-22T07:04:11.233Z,96892.22
2022-11-22T07:06:41.649Z,96891.56
2022-11-22T07:09:10.619Z,96885.41
2022-11-22T07:11:40.976Z,96892.13
2022-11-22T07:14:09.329Z,96894.06
2022-11-22T07:16:41.736Z,96898.00
2022-11-22T07:19:08.461Z,96911.09
2022-11-22T07:21:37.276Z,96918.84
2022-11-22T07:24:05.656Z,96928.09
2022-11-22T07:26:32.317Z,96936.50
2022-11-22T07:28:59.038Z,96938.97
2022-11-22T07:31:28.761Z,96930.38
2022-11-22T07:33:57.658Z,96932.31
2022-11-22T07:36:32.439Z,96934.69
2022-11-22T07:39:02.742Z,96940.63
2022-11-22T07:41:29.406Z,96942.47
2022-11-22T07:43:56.077Z,96949.63
2022-11-22T07:46:29.914Z,96954.94
2022-11-22T07:49:03.560Z,96952.06
2022-11-22T07:51:30.855Z,96966.19
2022-11-22T07:54:00.585Z,96966.53
2022-11-22T07:56:28.137Z,96977.56
2022-11-22T07:58:55.380Z,96982.09
2022-11-22T08:01:23.656Z,96987.38
2022-11-22T08:03:51.406Z,96984.13
2022-11-22T08:06:18.079Z,96997.81
2022-11-22T08:09:01.851Z,96997.19
2022-11-22T08:11:34.853Z,96999.56
2022-11-22T08:14:07.037Z,97003.06
2022-11-22T08:16:34.621Z,97005.34
2022-11-22T08:19:17.620Z,97009.41
2022-11-22T08:21:58.316Z,97017.38
2022-11-22T08:24:29.666Z,97015.72
2022-11-22T08:26:56.818Z,97014.00
2022-11-22T08:29:31.366Z,97023.22
2022-11-22T08:32:15.092Z,97027.59
2022-11-22T08:34:47.121Z,97028.84
2022-11-22T08:37:19.003Z,97026.94
2022-11-22T08:39:48.291Z,97019.97
2022-11-22T08:42:17.584Z,97025.69
2022-11-22T08:44:44.789Z,97024.91
2022-11-22T08:47:16.511Z,97017.97
2022-11-22T08:49:46.971Z,97020.19
2022-11-22T08:52:22.231Z,97022.56
2022-11-22T08:55:29.393Z,97011.34
2022-11-22T08:58:04.834Z,97018.28
2022-11-22T09:00:33.735Z,97021.91
2022-11-22T09:03:04.033Z,97024.50
2022-11-22T09:05:31.443Z,97023.25
2022-11-22T09:10:45.488Z,97021.09
2022-11-22T09:13:12.270Z,97022.25
2022-11-22T09:15:38.911Z,97026.19
2022-11-22T09:18:05.632Z,97031.22
2022-11-22T09:20:42.079Z,97029.88
2022-11-22T09:23:08.956Z,97033.50
2022-11-22T09:25:35.815Z,97025.03
2022-11-22T09:28:03.358Z,97032.47
2022-11-22T09:30:30.714Z,97032.91
2022-11-22T09:32:57.400Z,97039.66
2022-11-22T09:35:24.139Z,97035.16
2022-11-22T09:37:50.826Z,97042.03
2022-11-22T09:40:18.312Z,97044.50
2022-11-22T09:42:58.484Z,97037.50
2022-11-22T09:45:42.244Z,97036.03
2022-11-22T09:48:36.156Z,97035.13
2022-11-22T09:51:14.929Z,97036.00
2022-11-22T09:53:41.747Z,97045.34
2022-11-22T09:56:13.179Z,97040.94
2022-11-22T09:59:04.357Z,97044.44
2022-11-22T10:01:56.567Z,97051.88
2022-11-22T10:04:34.588Z,97048.13
2022-11-22T10:07:27.475Z,97056.78
2022-11-22T10:10:22.338Z,97048.81
2022-11-22T10:12:56.968Z,97050.78
2022-11-22T10:15:48.603Z,97048.84
2022-11-22T10:18:23.103Z,97052.78
2022-11-22T10:20:49.691Z,97053.28
2022-11-22T10:23:24.877Z,97055.25
2022-11-22T10:25:58.886Z,97057.84
2022-11-22T10:28:36.212Z,97066.50
2022-11-22T10:31:52.963Z,97065.41
2022-11-22T10:34:25.047Z,97068.69
2022-11-22T10:37:14.045Z,97071.38
2022-11-22T10:39:53.273Z,97070.69
2022-11-22T10:42:46.274Z,97069.28
2022-11-22T10:45:28.269Z,97071.75
2022-11-22T10:47:54.812Z,97070.97
2022-11-22T10:50:35.603Z,97082.91
2022-11-22T10:53:22.302Z,97084.19
2022-11-22T10:56:04.314Z,97075.22
2022-11-22T10:59:08.316Z,97079.63
2022-11-22T11:01:48.151Z,97083.56
2022-11-22T11:04:18.886Z,97080.63
2022-11-22T11:12:39.950Z,97083.50
2022-11-22T11:15:22.878Z,97093.34
2022-11-22T11:18:02.218Z,97089.25
2022-11-22T11:20:41.235Z,97092.09
2022-11-22T11:23:15.069Z,97081.00
2022-11-22T11:25:45.311Z,97082.56
2022-11-22T11:28:17.735Z,97083.69
2022-11-22T11:30:48.080Z,97088.09
2022-11-22T11:33:26.837Z,97086.09
2022-11-22T11:35:57.345Z,97082.81
2022-11-22T11:38:48.468Z,97074.31
2022-11-22T11:41:22.966Z,97068.63
2022-11-22T11:43:54.117Z,97071.78
2022-11-22T11:46:26.271Z,97066.81
2022-11-22T11:49:09.070Z,97062.88
2022-11-22T11:51:44.991Z,97061.94
2022-11-22T11:54:16.268Z,97063.16
2022-11-22T11:56:51.050Z,97056.22
2022-11-22T11:59:17.744Z,97063.69
2022-11-22T12:02:02.338Z,97062.72
2022-11-22T12:04:34.615Z,97055.16
2022-11-22T12:07:16.206Z,97053.78
2022-11-22T12:09:46.724Z,97047.09
2022-11-22T12:12:48.814Z,97041.94
2022-11-22T12:15:26.218Z,97044.91
2022-11-22T12:18:29.785Z,97038.50
2022-11-22T12:21:34.963Z,97037.22
2022-11-22T12:24:34.887Z,97040.41
2022-11-22T12:26:56.202Z,97037.91
2022-11-22T12:29:25.915Z,97033.16
2022-11-22T12:32:00.646Z,97025.88
2022-11-22T12:34:33.976Z,97032.38
2022-11-22T12:37:10.608Z,97028.38
2022-11-22T12:39:38.074Z,97026.97
2022-11-22T12:42:15.428Z,97033.19
2022-11-22T12:44:55.372Z,97025.47
2022-11-22T12:47:43.203Z,97029.88
2022-11-22T12:50:20.896Z,97016.88
2022-11-22T12:52:56.310Z,97017.72
2022-11-22T12:55:40.541Z,97019.50
2022-11-22T12:58:30.354Z,97009.81
2022-11-22T13:01:09.443Z,97010.66
2022-11-22T13:03:50.739Z,97006.75
2022-11-22T13:06:23.570Z,97003.34
2022-11-22T13:09:05.161Z,97000.69
2022-11-22T13:11:36.383Z,97007.22
2022-11-22T13:14:12.474Z,97008.22
2022-11-22T13:16:42.429Z,97018.63
2022-11-22T13:19:15.375Z,97007.13
2022-11-22T13:22:05.330Z,97004.22
2022-11-22T13:24:42.892Z,97008.66
2022-11-22T13:27:14.771Z,97006.25
2022-11-22T13:29:43.467Z,97003.97
2022-11-22T13:32:13.335Z,97011.75
2022-11-22T13:35:01.377Z,97006.97
2022-11-22T13:37:30.460Z,97002.25
2022-11-22T13:40:08.551Z,97000.91
2022-11-22T13:42:35.157Z,97002.19
2022-11-22T13:45:01.848Z,97013.91
2022-11-22T13:47:28.462Z,97011.28
2022-11-22T13:49:55.422Z,97013.44
2022-11-22T13:52:22.177Z,97015.72
2022-11-22T13:54:56.661Z,97014.13
2022-11-22T13:57:34.657Z,97020.81
2022-11-22T14:00:16.738Z,97010.91
2022-11-22T14:02:52.942Z,97023.56
2022-11-22T14:05:25.803Z,97025.38
2022-11-22T14:07:56.109Z,97023.72
2022-11-22T14:10:29.079Z,97021.03
2022-11-22T14:13:04.966Z,97016.34
2022-11-22T14:16:10.508Z,97033.63
2022-11-22T14:19:29.884Z,97030.38
2022-11-22T14:22:11.625Z,97028.50
2022-11-22T14:25:05.279Z,97036.72
2022-11-22T14:27:43.821Z,97035.47
2022-11-22T14:30:21.750Z,97050.50
2022-11-22T14:32:51.259Z,97054.00
2022-11-22T14:35:22.511Z,97046.59
2022-11-22T14:38:28.851Z,97053.69
2022-11-22T14:41:27.883Z,97049.75
2022-11-22T14:44:07.284Z,97043.22
2022-11-22T14:46:53.248Z,97041.69
2022-11-22T14:49:37.202Z,97046.19
2022-11-22T14:52:11.818Z,97045.47
2022-11-22T14:54:48.510Z,97043.34
2022-11-22T14:57:20.669Z,97042.13
2022-11-22T15:00:12.748Z,97044.41
2022-11-22T15:03:01.258Z,97038.69
2022-11-22T15:09:16.477Z,97040.16
2022-11-22T15:09:46.436Z,97040.94
2022-11-22T15:12:16.777Z,97048.16
2022-11-22T15:59:43.262Z,97106.19
2022-11-22T16:02:20.562Z,97107.97
2022-11-22T16:06:09.701Z,97119.34
2022-11-22T16:07:49.100Z,97119.81
2022-11-22T16:10:20.573Z,97123.06
2022-11-22T16:12:47.564Z,97114.75
2022-11-22T16:15:26.334Z,97114.50
2022-11-22T16:18:08.560Z,97113.28
2022-11-22T16:21:00.046Z,97118.56
2022-11-22T16:23:33.356Z,97124.53
2022-11-22T16:26:19.571Z,97122.59
2022-11-22T16:28:49.257Z,97126.78
2022-11-22T16:31:27.458Z,97129.72
2022-11-22T16:33:59.728Z,97120.81
2022-11-22T16:36:33.024Z,97125.84
2022-11-22T16:39:03.225Z,97129.13
2022-11-22T16:41:30.057Z,97121.50
2022-11-22T16:44:00.796Z,97121.59
2022-11-22T16:46:27.531Z,97128.44
2022-11-22T16:48:59.301Z,97131.03
2022-11-22T16:51:28.661Z,97123.59
2022-11-22T16:54:10.825Z,97129.56
2022-11-22T16:56:37.938Z,97130.44
2022-11-22T16:59:09.732Z,97131.81
2022-11-22T17:01:42.133Z,97135.50
2022-11-22T17:04:22.892Z,97132.66
2022-11-22T17:06:50.645Z,97129.72
2022-11-22T17:09:17.508Z,97117.38
2022-11-22T17:11:46.099Z,97128.81
2022-11-22T17:14:17.573Z,97129.47
2022-11-22T17:16:45.908Z,97133.41
2022-11-22T17:19:45.659Z,97134.44
2022-11-22T17:22:13.845Z,97143.72
2022-11-22T17:24:41.349Z,97145.19
2022-11-22T17:27:22.840Z,97149.78
2022-11-22T17:32:41.468Z,97162.03
2022-11-22T17:35:14.439Z,97160.56
2022-11-22T17:37:41.367Z,97163.41
2022-11-22T17:40:09.563Z,97163.84
2022-11-22T17:42:40.947Z,97170.22
2022-11-22T17:45:08.278Z,97163.94
2022-11-22T17:47:35.779Z,97155.03
2022-11-22T17:50:03.054Z,97158.19
2022-11-22T17:52:32.493Z,97165.28
2022-11-22T17:55:05.542Z,97166.06
2022-11-22T17:57:36.441Z,97170.09
2022-11-22T18:00:07.524Z,97179.66
2022-11-22T18:02:37.151Z,97186.69
2022-11-22T18:05:08.535Z,97183.63
2022-11-22T18:07:38.515Z,97187.56
2022-11-22T18:10:32.977Z,97189.13
2022-11-22T18:13:20.407Z,97193.03
2022-11-22T18:15:46.552Z,97191.06
2022-11-22T18:18:33.555Z,97188.91
2022-11-22T18:21:02.545Z,97193.66
2022-11-22T18:23:37.676Z,97194.00
2022-11-22T18:26:40.376Z,97195.94
2022-11-22T18:29:24.656Z,97199.13
2022-11-22T18:31:52.043Z,97196.09
2022-11-22T18:34:20.344Z,97206.19
2022-11-22T18:37:04.098Z,97197.81
2022-11-22T18:39:37.493Z,97201.56
2022-11-22T18:42:15.936Z,97208.66
2022-11-22T18:44:43.075Z,97212.31
2022-11-22T18:47:10.060Z,97217.91
2022-11-22T18:49:39.907Z,97211.16
2022-11-22T18:52:06.666Z,97219.06
2022-11-22T18:54:34.066Z,97219.66
2022-11-22T18:57:10.173Z,97217.47
2022-11-22T18:59:39.807Z,97214.09
2022-11-22T19:02:11.883Z,97222.00
2022-11-22T19:04:38.875Z,97224.75
2022-11-22T19:07:05.987Z,97224.53
2022-11-22T19:09:41.544Z,97222.81
2022-11-22T19:12:16.401Z,97218.00
2022-11-22T19:14:48.690Z,97221.59
2022-11-22T19:17:19.983Z,97216.44
2022-11-22T19:19:48.681Z,97218.50
2022-11-22T19:22:18.452Z,97215.06
2022-11-22T19:24:48.204Z,97220.56
2022-11-22T19:27:36.709Z,97216.44
2022-11-22T19:30:04.295Z,97217.44
2022-11-22T19:32:40.554Z,97216.44
2022-11-22T19:35:08.202Z,97211.75
2022-11-22T19:38:01.188Z,97216.91
2022-11-22T19:40:28.006Z,97220.66
2022-11-22T19:43:00.210Z,97222.03
2022-11-22T19:45:27.356Z,97214.03
2022-11-22T19:48:03.614Z,97221.13
2022-11-22T19:50:34.092Z,97220.50
2022-11-22T19:53:01.258Z,97220.84
2022-11-22T19:55:28.217Z,97220.06
2022-11-22T19:57:57.042Z,97227.56
2022-11-22T20:00:43.255Z,97228.03
2022-11-22T20:03:16.600Z,97229.72
2022-11-22T20:05:43.466Z,97229.00
2022-11-22T20:08:11.868Z,97226.97
2022-11-22T20:10:54.440Z,97229.41
2022-11-22T20:13:43.115Z,97234.72
2022-11-22T20:16:26.523Z,97236.09
2022-11-22T20:19:01.000Z,97240.34
2022-11-22T20:21:45.509Z,97243.72
2022-11-22T20:24:13.472Z,97242.72
2022-11-22T20:26:40.486Z,97255.66
2022-11-22T20:29:12.585Z,97253.63
2022-11-22T20:31:40.939Z,97256.00
2022-11-22T20:34:10.870Z,97256.22
2022-11-22T20:36:37.788Z,97262.06
2022-11-22T20:39:28.248Z,97266.06
2022-11-22T20:45:08.913Z,97272.09
2022-11-22T20:47:41.054Z,97274.69
2022-11-22T20:53:09.548Z,97268.72
2022-11-22T20:55:42.008Z,97279.44
2022-11-22T20:58:11.139Z,97277.88
2022-11-22T21:00:41.473Z,97276.06
2022-11-22T21:03:11.657Z,97275.47
2022-11-22T21:05:44.563Z,97271.66
2022-11-22T21:08:11.534Z,97271.31
2022-11-22T21:10:41.206Z,97273.91
2022-11-22T21:13:08.240Z,97279.63
2022-11-22T21:15:35.119Z,97276.84
2022-11-22T21:18:24.006Z,97261.31
2022-11-22T21:20:57.371Z,97267.41
2022-11-22T21:23:24.864Z,97272.78
2022-11-22T21:26:34.664Z,97274.81
2022-11-22T21:29:14.519Z,97271.44
2022-11-22T21:32:01.871Z,97264.69
2022-11-22T21:34:46.489Z,97271.09
2022-11-22T21:37:17.453Z,97268.84
2022-11-22T21:39:47.462Z,97275.81
2022-11-22T21:42:17.931Z,97277.88
2022-11-22T21:44:46.992Z,97277.75
2022-11-22T21:47:39.221Z,97280.34
2022-11-22T21:50:43.618Z,97282.50
2022-11-22T21:53:25.340Z,97295.22
2022-11-22T21:56:06.623Z,97292.06
2022-11-22T21:58:41.670Z,97284.94
2022-11-22T22:01:31.411Z,97283.81
2022-11-22T22:04:36.400Z,97282.66
2022-11-22T22:38:27.168Z,97306.09
2022-11-22T22:41:18.175Z,97305.47
2022-11-22T22:43:51.376Z,97305.25
2022-11-22T22:46:24.818Z,97297.41
2022-11-22T22:48:52.197Z,97312.59
2022-11-22T22:51:31.639Z,97307.22
2022-11-22T22:54:00.585Z,97314.69
2022-11-22T22:56:31.670Z,97317.13
2022-11-22T22:59:01.205Z,97316.63
2022-11-22T23:01:31.872Z,97329.28
2022-11-22T23:04:02.768Z,97329.50
2022-11-22T23:06:34.889Z,97323.16
2022-11-22T23:09:06.796Z,97326.16
2022-11-22T23:11:56.003Z,97323.50
2022-11-22T23:14:26.101Z,97331.16
2022-11-22T23:16:57.587Z,97338.22
2022-11-22T23:19:26.670Z,97322.34
2022-11-22T23:21:56.053Z,97326.94
2022-11-22T23:24:22.882Z,97335.91
2022-11-22T23:26:49.691Z,97336.72
2022-11-22T23:29:19.600Z,97340.50
2022-11-22T23:31:49.666Z,97342.19
2022-11-22T23:34:16.726Z,97338.44
2022-11-22T23:36:43.923Z,97334.75
2022-11-22T23:39:12.940Z,97343.72
2022-11-22T23:41:41.971Z,97347.25
2022-11-22T23:44:10.300Z,97345.69
2022-11-22T23:46:40.409Z,97343.13
2022-11-22T23:49:11.147Z,97345.72
2022-11-22T23:51:37.888Z,97343.94
2022-11-22T23:54:06.201Z,97344.75
2022-11-22T23:56:38.505Z,97351.72
2022-11-22T23:59:10.510Z,97347.00
